sensor_id;sensor_type;location;lat;lon;timestamp;temperature;humidity
27314;DHT22;14800;48.174;9.798;2023-08-08T00:01:54;14.80;75.40
27314;DHT22;14800;48.174;9.798;2023-08-08T00:04:19;14.80;75.40
27314;DHT22;14800;48.174;9.798;2023-08-08T00:06:45;14.70;75.70
27314;DHT22;14800;48.174;9.798;2023-08-08T00:09:10;14.70;76.10
27314;DHT22;14800;48.174;9.798;2023-08-08T00:11:36;14.70;76.30
27314;DHT22;14800;48.174;9.798;2023-08-08T00:14:02;14.60;76.50
27314;DHT22;14800;48.174;9.798;2023-08-08T00:16:27;14.60;76.70
27314;DHT22;14800;48.174;9.798;2023-08-08T00:18:53;14.50;76.80
27314;DHT22;14800;48.174;9.798;2023-08-08T00:21:20;14.50;77.10
27314;DHT22;14800;48.174;9.798;2023-08-08T00:23:45;14.50;77.50
27314;DHT22;14800;48.174;9.798;2023-08-08T00:26:11;14.50;77.70
27314;DHT22;14800;48.174;9.798;2023-08-08T00:28:37;14.50;77.70
27314;DHT22;14800;48.174;9.798;2023-08-08T00:31:03;14.40;77.80
27314;DHT22;14800;48.174;9.798;2023-08-08T00:33:28;14.40;77.90
27314;DHT22;14800;48.174;9.798;2023-08-08T00:35:54;14.40;78.00
27314;DHT22;14800;48.174;9.798;2023-08-08T00:38:19;14.40;78.10
27314;DHT22;14800;48.174;9.798;2023-08-08T00:40:45;14.40;78.20
27314;DHT22;14800;48.174;9.798;2023-08-08T00:43:11;14.40;78.20
27314;DHT22;14800;48.174;9.798;2023-08-08T00:45:37;14.40;78.20
27314;DHT22;14800;48.174;9.798;2023-08-08T00:48:04;14.40;78.30
27314;DHT22;14800;48.174;9.798;2023-08-08T00:50:29;14.40;78.50
27314;DHT22;14800;48.174;9.798;2023-08-08T00:52:55;14.40;78.70
27314;DHT22;14800;48.174;9.798;2023-08-08T00:55:23;14.40;78.70
27314;DHT22;14800;48.174;9.798;2023-08-08T00:57:48;14.40;79.00
27314;DHT22;14800;48.174;9.798;2023-08-08T01:00:14;14.40;79.00
27314;DHT22;14800;48.174;9.798;2023-08-08T01:02:40;14.40;79.00
27314;DHT22;14800;48.174;9.798;2023-08-08T01:05:06;14.40;79.00
27314;DHT22;14800;48.174;9.798;2023-08-08T01:07:57;14.50;79.10
27314;DHT22;14800;48.174;9.798;2023-08-08T01:10:27;14.50;79.90
27314;DHT22;14800;48.174;9.798;2023-08-08T01:12:59;14.50;78.90
27314;DHT22;14800;48.174;9.798;2023-08-08T01:15:26;14.50;79.10
27314;DHT22;14800;48.174;9.798;2023-08-08T01:17:52;14.60;78.90
27314;DHT22;14800;48.174;9.798;2023-08-08T01:20:18;14.60;78.90
27314;DHT22;14800;48.174;9.798;2023-08-08T01:25:37;14.60;79.60
27314;DHT22;14800;48.174;9.798;2023-08-08T01:28:03;14.60;78.70
27314;DHT22;14800;48.174;9.798;2023-08-08T01:30:30;14.60;78.70
27314;DHT22;14800;48.174;9.798;2023-08-08T01:32:56;14.70;78.70
27314;DHT22;14800;48.174;9.798;2023-08-08T01:35:22;14.70;78.60
27314;DHT22;14800;48.174;9.798;2023-08-08T01:37:52;14.70;78.70
27314;DHT22;14800;48.174;9.798;2023-08-08T01:40:19;14.70;78.60
27314;DHT22;14800;48.174;9.798;2023-08-08T01:42:47;14.70;79.30
27314;DHT22;14800;48.174;9.798;2023-08-08T01:45:15;14.70;78.40
27314;DHT22;14800;48.174;9.798;2023-08-08T01:47:41;14.60;79.20
27314;DHT22;14800;48.174;9.798;2023-08-08T01:50:07;14.70;78.40
27314;DHT22;14800;48.174;9.798;2023-08-08T01:52:34;14.60;78.40
27314;DHT22;14800;48.174;9.798;2023-08-08T01:55:00;14.60;78.50
27314;DHT22;14800;48.174;9.798;2023-08-08T01:57:26;14.60;78.70
27314;DHT22;14800;48.174;9.798;2023-08-08T01:59:51;14.60;78.70
27314;DHT22;14800;48.174;9.798;2023-08-08T02:02:17;14.60;78.70
27314;DHT22;14800;48.174;9.798;2023-08-08T02:04:43;14.60;78.70
27314;DHT22;14800;48.174;9.798;2023-08-08T02:07:09;14.60;78.70
27314;DHT22;14800;48.174;9.798;2023-08-08T02:09:34;14.60;78.70
27314;DHT22;14800;48.174;9.798;2023-08-08T02:12:00;14.60;78.90
27314;DHT22;14800;48.174;9.798;2023-08-08T02:14:25;14.60;78.90
27314;DHT22;14800;48.174;9.798;2023-08-08T02:16:51;14.50;79.00
27314;DHT22;14800;48.174;9.798;2023-08-08T02:19:16;14.60;79.10
27314;DHT22;14800;48.174;9.798;2023-08-08T02:21:42;14.50;79.00
27314;DHT22;14800;48.174;9.798;2023-08-08T02:24:07;14.50;79.80
27314;DHT22;14800;48.174;9.798;2023-08-08T02:26:33;14.50;79.10
27314;DHT22;14800;48.174;9.798;2023-08-08T02:28:59;14.50;78.90
27314;DHT22;14800;48.174;9.798;2023-08-08T02:31:24;14.50;79.00
27314;DHT22;14800;48.174;9.798;2023-08-08T02:33:50;14.60;79.10
27314;DHT22;14800;48.174;9.798;2023-08-08T02:36:17;14.50;79.10
27314;DHT22;14800;48.174;9.798;2023-08-08T02:38:43;14.50;79.80
27314;DHT22;14800;48.174;9.798;2023-08-08T02:41:09;14.50;78.90
27314;DHT22;14800;48.174;9.798;2023-08-08T02:43:35;14.50;79.10
27314;DHT22;14800;48.174;9.798;2023-08-08T02:46:00;14.50;79.10
27314;DHT22;14800;48.174;9.798;2023-08-08T02:48:27;14.50;79.30
27314;DHT22;14800;48.174;9.798;2023-08-08T02:50:52;14.50;79.30
27314;DHT22;14800;48.174;9.798;2023-08-08T02:53:18;14.50;79.30
27314;DHT22;14800;48.174;9.798;2023-08-08T02:55:43;14.50;79.30
27314;DHT22;14800;48.174;9.798;2023-08-08T02:58:09;14.50;79.30
27314;DHT22;14800;48.174;9.798;2023-08-08T03:00:35;14.50;79.30
27314;DHT22;14800;48.174;9.798;2023-08-08T03:03:00;14.50;79.30
27314;DHT22;14800;48.174;9.798;2023-08-08T03:05:26;14.60;79.30
27314;DHT22;14800;48.174;9.798;2023-08-08T03:07:51;14.60;79.20
27314;DHT22;14800;48.174;9.798;2023-08-08T03:10:17;14.60;79.10
27314;DHT22;14800;48.174;9.798;2023-08-08T03:12:42;14.60;78.90
27314;DHT22;14800;48.174;9.798;2023-08-08T03:15:08;14.60;78.90
27314;DHT22;14800;48.174;9.798;2023-08-08T03:17:35;14.60;78.80
27314;DHT22;14800;48.174;9.798;2023-08-08T03:20:01;14.60;78.90
27314;DHT22;14800;48.174;9.798;2023-08-08T03:22:28;14.60;78.90
27314;DHT22;14800;48.174;9.798;2023-08-08T03:24:53;14.60;78.90
27314;DHT22;14800;48.174;9.798;2023-08-08T03:27:19;14.50;78.70
27314;DHT22;14800;48.174;9.798;2023-08-08T03:29:44;14.50;78.60
27314;DHT22;14800;48.174;9.798;2023-08-08T03:32:10;14.50;78.80
27314;DHT22;14800;48.174;9.798;2023-08-08T03:34:35;14.50;78.80
27314;DHT22;14800;48.174;9.798;2023-08-08T03:37:01;14.50;78.80
27314;DHT22;14800;48.174;9.798;2023-08-08T03:39:26;14.50;78.80
27314;DHT22;14800;48.174;9.798;2023-08-08T03:41:52;14.50;78.80
27314;DHT22;14800;48.174;9.798;2023-08-08T03:44:18;14.40;78.80
27314;DHT22;14800;48.174;9.798;2023-08-08T03:46:43;14.40;78.90
27314;DHT22;14800;48.174;9.798;2023-08-08T03:49:09;14.40;78.90
27314;DHT22;14800;48.174;9.798;2023-08-08T03:51:34;14.40;78.90
27314;DHT22;14800;48.174;9.798;2023-08-08T03:54:00;14.50;78.90
27314;DHT22;14800;48.174;9.798;2023-08-08T03:56:25;14.50;78.90
27314;DHT22;14800;48.174;9.798;2023-08-08T03:58:52;14.50;78.80
27314;DHT22;14800;48.174;9.798;2023-08-08T04:01:18;14.50;78.70
27314;DHT22;14800;48.174;9.798;2023-08-08T04:03:43;14.50;78.60
27314;DHT22;14800;48.174;9.798;2023-08-08T04:06:09;14.50;78.60
27314;DHT22;14800;48.174;9.798;2023-08-08T04:08:35;14.50;78.40
27314;DHT22;14800;48.174;9.798;2023-08-08T04:11:00;14.50;78.40
27314;DHT22;14800;48.174;9.798;2023-08-08T04:13:26;14.50;78.40
27314;DHT22;14800;48.174;9.798;2023-08-08T04:15:52;14.50;78.40
27314;DHT22;14800;48.174;9.798;2023-08-08T04:18:18;14.50;78.30
27314;DHT22;14800;48.174;9.798;2023-08-08T04:20:45;14.50;78.20
27314;DHT22;14800;48.174;9.798;2023-08-08T04:23:11;14.50;78.20
27314;DHT22;14800;48.174;9.798;2023-08-08T04:25:36;14.50;78.20
27314;DHT22;14800;48.174;9.798;2023-08-08T04:28:02;14.50;78.20
27314;DHT22;14800;48.174;9.798;2023-08-08T04:30:28;14.50;78.20
27314;DHT22;14800;48.174;9.798;2023-08-08T04:32:54;14.50;78.20
27314;DHT22;14800;48.174;9.798;2023-08-08T04:35:19;14.50;78.20
27314;DHT22;14800;48.174;9.798;2023-08-08T04:37:45;14.50;78.30
27314;DHT22;14800;48.174;9.798;2023-08-08T04:40:10;14.50;78.30
27314;DHT22;14800;48.174;9.798;2023-08-08T04:42:36;14.50;78.40
27314;DHT22;14800;48.174;9.798;2023-08-08T04:45:02;14.50;78.40
27314;DHT22;14800;48.174;9.798;2023-08-08T04:47:28;14.40;78.50
27314;DHT22;14800;48.174;9.798;2023-08-08T04:49:53;14.50;78.60
27314;DHT22;14800;48.174;9.798;2023-08-08T04:52:19;14.50;78.70
27314;DHT22;14800;48.174;9.798;2023-08-08T04:54:44;14.40;78.80
27314;DHT22;14800;48.174;9.798;2023-08-08T04:57:10;14.40;78.90
27314;DHT22;14800;48.174;9.798;2023-08-08T04:59:36;14.50;79.10
27314;DHT22;14800;48.174;9.798;2023-08-08T05:02:01;14.40;79.60
27314;DHT22;14800;48.174;9.798;2023-08-08T05:04:27;14.50;79.00
27314;DHT22;14800;48.174;9.798;2023-08-08T05:06:52;14.50;78.90
27314;DHT22;14800;48.174;9.798;2023-08-08T05:09:18;14.60;78.90
27314;DHT22;14800;48.174;9.798;2023-08-08T05:11:46;14.60;79.80
27314;DHT22;14800;48.174;9.798;2023-08-08T05:14:11;14.60;78.90
27314;DHT22;14800;48.174;9.798;2023-08-08T05:16:37;14.60;78.90
27314;DHT22;14800;48.174;9.798;2023-08-08T05:19:03;14.60;78.80
27314;DHT22;14800;48.174;9.798;2023-08-08T05:21:28;14.60;78.80
27314;DHT22;14800;48.174;9.798;2023-08-08T05:23:54;14.60;78.70
27314;DHT22;14800;48.174;9.798;2023-08-08T05:26:20;14.70;78.60
27314;DHT22;14800;48.174;9.798;2023-08-08T05:28:45;14.70;78.60
27314;DHT22;14800;48.174;9.798;2023-08-08T05:31:11;14.70;78.40
27314;DHT22;14800;48.174;9.798;2023-08-08T05:33:36;14.80;78.40
27314;DHT22;14800;48.174;9.798;2023-08-08T05:36:02;14.80;78.20
27314;DHT22;14800;48.174;9.798;2023-08-08T05:38:28;14.80;78.20
27314;DHT22;14800;48.174;9.798;2023-08-08T05:40:53;14.80;78.10
27314;DHT22;14800;48.174;9.798;2023-08-08T05:43:19;14.80;78.00
27314;DHT22;14800;48.174;9.798;2023-08-08T05:45:46;14.90;77.90
27314;DHT22;14800;48.174;9.798;2023-08-08T05:48:11;14.90;77.80
27314;DHT22;14800;48.174;9.798;2023-08-08T05:50:38;14.90;77.70
27314;DHT22;14800;48.174;9.798;2023-08-08T05:53:04;14.90;77.60
27314;DHT22;14800;48.174;9.798;2023-08-08T05:55:30;14.90;77.30
27314;DHT22;14800;48.174;9.798;2023-08-08T05:57:55;15.00;77.30
27314;DHT22;14800;48.174;9.798;2023-08-08T06:00:21;15.00;77.20
27314;DHT22;14800;48.174;9.798;2023-08-08T06:02:46;15.00;77.10
27314;DHT22;14800;48.174;9.798;2023-08-08T06:05:12;15.00;77.10
27314;DHT22;14800;48.174;9.798;2023-08-08T06:07:38;15.00;78.00
27314;DHT22;14800;48.174;9.798;2023-08-08T06:10:05;15.00;77.30
27314;DHT22;14800;48.174;9.798;2023-08-08T06:12:31;15.10;77.50
27314;DHT22;14800;48.174;9.798;2023-08-08T06:14:56;15.10;77.50
27314;DHT22;14800;48.174;9.798;2023-08-08T06:17:22;15.20;77.50
27314;DHT22;14800;48.174;9.798;2023-08-08T06:19:49;15.20;77.50
27314;DHT22;14800;48.174;9.798;2023-08-08T06:22:15;15.30;77.40
27314;DHT22;14800;48.174;9.798;2023-08-08T06:24:41;15.30;77.30
27314;DHT22;14800;48.174;9.798;2023-08-08T06:27:07;15.40;77.30
27314;DHT22;14800;48.174;9.798;2023-08-08T06:29:32;15.50;77.30
27314;DHT22;14800;48.174;9.798;2023-08-08T06:31:58;15.50;77.30
27314;DHT22;14800;48.174;9.798;2023-08-08T06:34:23;15.60;77.20
27314;DHT22;14800;48.174;9.798;2023-08-08T06:36:49;15.70;77.00
27314;DHT22;14800;48.174;9.798;2023-08-08T06:39:15;15.70;76.80
27314;DHT22;14800;48.174;9.798;2023-08-08T06:41:41;15.80;76.60
27314;DHT22;14800;48.174;9.798;2023-08-08T06:44:07;15.80;76.50
27314;DHT22;14800;48.174;9.798;2023-08-08T06:46:33;15.90;76.30
27314;DHT22;14800;48.174;9.798;2023-08-08T06:48:58;15.90;76.10
27314;DHT22;14800;48.174;9.798;2023-08-08T06:51:25;16.00;76.20
27314;DHT22;14800;48.174;9.798;2023-08-08T06:53:51;16.00;76.00
27314;DHT22;14800;48.174;9.798;2023-08-08T06:56:17;16.10;75.80
27314;DHT22;14800;48.174;9.798;2023-08-08T06:58:43;16.30;75.90
27314;DHT22;14800;48.174;9.798;2023-08-08T07:01:09;16.30;75.70
27314;DHT22;14800;48.174;9.798;2023-08-08T07:03:35;16.40;75.40
27314;DHT22;14800;48.174;9.798;2023-08-08T07:06:01;16.50;75.50
27314;DHT22;14800;48.174;9.798;2023-08-08T07:08:26;16.50;75.60
27314;DHT22;14800;48.174;9.798;2023-08-08T07:10:52;16.60;75.40
27314;DHT22;14800;48.174;9.798;2023-08-08T07:13:17;16.70;75.30
27314;DHT22;14800;48.174;9.798;2023-08-08T07:15:43;16.80;75.30
27314;DHT22;14800;48.174;9.798;2023-08-08T07:18:08;16.80;75.30
27314;DHT22;14800;48.174;9.798;2023-08-08T07:20:34;16.90;74.80
27314;DHT22;14800;48.174;9.798;2023-08-08T07:23:00;17.00;74.00
27314;DHT22;14800;48.174;9.798;2023-08-08T07:25:26;17.10;73.30
27314;DHT22;14800;48.174;9.798;2023-08-08T07:27:52;17.10;72.70
27314;DHT22;14800;48.174;9.798;2023-08-08T07:30:18;17.20;72.50
27314;DHT22;14800;48.174;9.798;2023-08-08T07:32:43;17.20;72.20
27314;DHT22;14800;48.174;9.798;2023-08-08T07:35:09;17.30;72.10
27314;DHT22;14800;48.174;9.798;2023-08-08T07:37:36;17.40;71.80
27314;DHT22;14800;48.174;9.798;2023-08-08T07:40:02;17.40;71.60
27314;DHT22;14800;48.174;9.798;2023-08-08T07:42:29;17.60;71.30
27314;DHT22;14800;48.174;9.798;2023-08-08T07:44:54;17.60;71.10
27314;DHT22;14800;48.174;9.798;2023-08-08T07:47:20;17.70;70.90
27314;DHT22;14800;48.174;9.798;2023-08-08T07:49:46;17.90;70.90
27314;DHT22;14800;48.174;9.798;2023-08-08T07:52:11;17.80;70.70
27314;DHT22;14800;48.174;9.798;2023-08-08T07:54:37;17.90;70.60
27314;DHT22;14800;48.174;9.798;2023-08-08T07:57:02;17.90;70.40
27314;DHT22;14800;48.174;9.798;2023-08-08T07:59:29;18.00;70.40
27314;DHT22;14800;48.174;9.798;2023-08-08T08:01:54;18.10;70.20
27314;DHT22;14800;48.174;9.798;2023-08-08T08:04:20;18.10;70.00
27314;DHT22;14800;48.174;9.798;2023-08-08T08:06:46;18.20;69.50
27314;DHT22;14800;48.174;9.798;2023-08-08T08:09:11;18.20;69.20
27314;DHT22;14800;48.174;9.798;2023-08-08T08:11:37;18.20;69.00
27314;DHT22;14800;48.174;9.798;2023-08-08T08:14:03;18.30;69.30
27314;DHT22;14800;48.174;9.798;2023-08-08T08:16:28;18.40;70.50
27314;DHT22;14800;48.174;9.798;2023-08-08T08:18:54;18.50;69.80
27314;DHT22;14800;48.174;9.798;2023-08-08T08:21:19;18.60;69.60
27314;DHT22;14800;48.174;9.798;2023-08-08T08:23:46;18.70;68.10
27314;DHT22;14800;48.174;9.798;2023-08-08T08:26:11;18.70;68.10
27314;DHT22;14800;48.174;9.798;2023-08-08T08:28:37;18.80;68.10
27314;DHT22;14800;48.174;9.798;2023-08-08T08:31:05;18.90;67.80
27314;DHT22;14800;48.174;9.798;2023-08-08T08:33:31;19.00;67.40
27314;DHT22;14800;48.174;9.798;2023-08-08T08:35:57;19.10;67.50
27314;DHT22;14800;48.174;9.798;2023-08-08T08:38:22;19.10;66.90
27314;DHT22;14800;48.174;9.798;2023-08-08T08:40:49;19.20;67.00
27314;DHT22;14800;48.174;9.798;2023-08-08T08:43:15;19.30;66.50
27314;DHT22;14800;48.174;9.798;2023-08-08T08:45:43;19.40;65.80
27314;DHT22;14800;48.174;9.798;2023-08-08T08:48:15;19.40;64.90
27314;DHT22;14800;48.174;9.798;2023-08-08T08:50:42;19.60;64.50
27314;DHT22;14800;48.174;9.798;2023-08-08T08:53:10;19.60;64.90
27314;DHT22;14800;48.174;9.798;2023-08-08T08:55:36;19.70;64.60
27314;DHT22;14800;48.174;9.798;2023-08-08T08:58:03;19.80;63.70
27314;DHT22;14800;48.174;9.798;2023-08-08T09:00:30;19.90;62.50
27314;DHT22;14800;48.174;9.798;2023-08-08T09:02:56;20.00;61.70
27314;DHT22;14800;48.174;9.798;2023-08-08T09:05:24;20.10;62.50
27314;DHT22;14800;48.174;9.798;2023-08-08T09:07:50;20.10;62.40
27314;DHT22;14800;48.174;9.798;2023-08-08T09:10:17;20.20;61.70
27314;DHT22;14800;48.174;9.798;2023-08-08T09:12:42;20.30;61.30
27314;DHT22;14800;48.174;9.798;2023-08-08T09:15:09;20.30;60.90
27314;DHT22;14800;48.174;9.798;2023-08-08T09:17:36;20.40;61.00
27314;DHT22;14800;48.174;9.798;2023-08-08T09:20:05;20.40;61.20
27314;DHT22;14800;48.174;9.798;2023-08-08T09:22:32;20.40;60.00
27314;DHT22;14800;48.174;9.798;2023-08-08T09:24:58;20.50;60.70
27314;DHT22;14800;48.174;9.798;2023-08-08T09:27:23;20.50;59.20
27314;DHT22;14800;48.174;9.798;2023-08-08T09:29:49;20.50;59.90
27314;DHT22;14800;48.174;9.798;2023-08-08T09:32:15;20.60;59.20
27314;DHT22;14800;48.174;9.798;2023-08-08T09:34:43;20.60;59.20
27314;DHT22;14800;48.174;9.798;2023-08-08T09:37:09;20.70;59.40
27314;DHT22;14800;48.174;9.798;2023-08-08T09:39:36;20.70;59.10
27314;DHT22;14800;48.174;9.798;2023-08-08T09:42:02;20.80;59.00
27314;DHT22;14800;48.174;9.798;2023-08-08T09:44:30;20.80;58.60
27314;DHT22;14800;48.174;9.798;2023-08-08T09:46:57;20.90;58.80
27314;DHT22;14800;48.174;9.798;2023-08-08T09:49:23;21.00;59.00
27314;DHT22;14800;48.174;9.798;2023-08-08T09:51:52;21.00;58.50
27314;DHT22;14800;48.174;9.798;2023-08-08T09:54:18;21.10;57.40
27314;DHT22;14800;48.174;9.798;2023-08-08T09:56:45;21.30;57.50
27314;DHT22;14800;48.174;9.798;2023-08-08T09:59:11;21.30;57.20
27314;DHT22;14800;48.174;9.798;2023-08-08T10:01:40;21.30;56.80
27314;DHT22;14800;48.174;9.798;2023-08-08T10:04:06;21.30;56.00
27314;DHT22;14800;48.174;9.798;2023-08-08T10:06:32;21.40;56.30
27314;DHT22;14800;48.174;9.798;2023-08-08T10:08:59;21.40;55.60
27314;DHT22;14800;48.174;9.798;2023-08-08T10:11:25;21.40;55.50
27314;DHT22;14800;48.174;9.798;2023-08-08T10:13:53;21.50;54.70
27314;DHT22;14800;48.174;9.798;2023-08-08T10:16:18;21.50;54.90
27314;DHT22;14800;48.174;9.798;2023-08-08T10:18:46;21.50;55.00
27314;DHT22;14800;48.174;9.798;2023-08-08T10:21:12;21.50;55.20
27314;DHT22;14800;48.174;9.798;2023-08-08T10:23:38;21.60;55.00
27314;DHT22;14800;48.174;9.798;2023-08-08T10:26:16;21.60;54.70
27314;DHT22;14800;48.174;9.798;2023-08-08T10:28:53;21.70;54.80
27314;DHT22;14800;48.174;9.798;2023-08-08T10:31:20;21.80;54.00
27314;DHT22;14800;48.174;9.798;2023-08-08T10:33:46;21.80;54.10
27314;DHT22;14800;48.174;9.798;2023-08-08T10:36:12;21.80;54.80
27314;DHT22;14800;48.174;9.798;2023-08-08T10:38:42;21.90;54.40
27314;DHT22;14800;48.174;9.798;2023-08-08T10:41:13;21.90;54.30
27314;DHT22;14800;48.174;9.798;2023-08-08T10:43:50;21.90;54.20
27314;DHT22;14800;48.174;9.798;2023-08-08T10:46:23;22.00;53.60
27314;DHT22;14800;48.174;9.798;2023-08-08T10:48:58;22.00;52.90
27314;DHT22;14800;48.174;9.798;2023-08-08T10:51:39;22.00;52.90
27314;DHT22;14800;48.174;9.798;2023-08-08T10:54:06;22.10;53.00
27314;DHT22;14800;48.174;9.798;2023-08-08T10:56:35;22.10;52.40
27314;DHT22;14800;48.174;9.798;2023-08-08T10:59:14;22.20;52.70
27314;DHT22;14800;48.174;9.798;2023-08-08T11:01:41;22.20;51.90
27314;DHT22;14800;48.174;9.798;2023-08-08T11:04:07;22.30;52.50
27314;DHT22;14800;48.174;9.798;2023-08-08T11:06:33;22.30;52.30
27314;DHT22;14800;48.174;9.798;2023-08-08T11:09:00;22.40;53.00
27314;DHT22;14800;48.174;9.798;2023-08-08T11:11:26;22.40;52.00
27314;DHT22;14800;48.174;9.798;2023-08-08T11:13:52;22.50;52.50
27314;DHT22;14800;48.174;9.798;2023-08-08T11:16:18;22.50;52.30
27314;DHT22;14800;48.174;9.798;2023-08-08T11:18:45;22.60;51.90
27314;DHT22;14800;48.174;9.798;2023-08-08T11:21:11;22.70;51.70
27314;DHT22;14800;48.174;9.798;2023-08-08T11:23:39;22.70;51.70
27314;DHT22;14800;48.174;9.798;2023-08-08T11:26:10;22.70;51.70
27314;DHT22;14800;48.174;9.798;2023-08-08T11:28:35;22.70;51.30
27314;DHT22;14800;48.174;9.798;2023-08-08T11:31:01;22.70;51.60
27314;DHT22;14800;48.174;9.798;2023-08-08T11:33:27;22.60;51.20
27314;DHT22;14800;48.174;9.798;2023-08-08T11:35:54;22.60;51.10
27314;DHT22;14800;48.174;9.798;2023-08-08T11:38:19;22.60;51.50
27314;DHT22;14800;48.174;9.798;2023-08-08T11:40:45;22.50;50.20
27314;DHT22;14800;48.174;9.798;2023-08-08T11:43:11;22.50;51.10
27314;DHT22;14800;48.174;9.798;2023-08-08T11:45:39;22.50;51.30
27314;DHT22;14800;48.174;9.798;2023-08-08T11:48:05;22.50;52.00
27314;DHT22;14800;48.174;9.798;2023-08-08T11:50:31;22.60;52.00
27314;DHT22;14800;48.174;9.798;2023-08-08T11:52:56;22.60;51.90
27314;DHT22;14800;48.174;9.798;2023-08-08T11:55:32;22.70;52.10
27314;DHT22;14800;48.174;9.798;2023-08-08T11:57:57;22.70;51.10
27314;DHT22;14800;48.174;9.798;2023-08-08T12:00:27;22.80;51.80
27314;DHT22;14800;48.174;9.798;2023-08-08T12:02:55;22.80;51.50
27314;DHT22;14800;48.174;9.798;2023-08-08T12:05:21;22.90;51.00
27314;DHT22;14800;48.174;9.798;2023-08-08T12:07:48;22.90;50.70
27314;DHT22;14800;48.174;9.798;2023-08-08T12:10:20;22.80;50.80
27314;DHT22;14800;48.174;9.798;2023-08-08T12:12:46;22.80;51.00
27314;DHT22;14800;48.174;9.798;2023-08-08T12:15:17;22.90;51.00
27314;DHT22;14800;48.174;9.798;2023-08-08T12:17:43;22.80;51.70
27314;DHT22;14800;48.174;9.798;2023-08-08T12:20:09;22.70;51.80
27314;DHT22;14800;48.174;9.798;2023-08-08T12:22:37;22.70;52.10
27314;DHT22;14800;48.174;9.798;2023-08-08T12:25:03;22.70;52.00
27314;DHT22;14800;48.174;9.798;2023-08-08T12:27:29;22.60;51.90
27314;DHT22;14800;48.174;9.798;2023-08-08T12:29:55;22.60;52.00
27314;DHT22;14800;48.174;9.798;2023-08-08T12:32:21;22.60;51.70
27314;DHT22;14800;48.174;9.798;2023-08-08T12:34:50;22.70;51.40
27314;DHT22;14800;48.174;9.798;2023-08-08T12:37:16;22.60;51.40
27314;DHT22;14800;48.174;9.798;2023-08-08T12:39:42;22.60;51.80
27314;DHT22;14800;48.174;9.798;2023-08-08T12:42:08;22.60;52.00
27314;DHT22;14800;48.174;9.798;2023-08-08T12:44:33;22.70;52.20
27314;DHT22;14800;48.174;9.798;2023-08-08T12:46:59;22.70;52.00
27314;DHT22;14800;48.174;9.798;2023-08-08T12:49:24;22.70;51.90
27314;DHT22;14800;48.174;9.798;2023-08-08T12:51:51;22.80;51.90
27314;DHT22;14800;48.174;9.798;2023-08-08T12:54:17;22.80;52.00
27314;DHT22;14800;48.174;9.798;2023-08-08T12:56:42;22.80;52.00
27314;DHT22;14800;48.174;9.798;2023-08-08T12:59:09;22.90;51.90
27314;DHT22;14800;48.174;9.798;2023-08-08T13:01:34;22.90;51.30
27314;DHT22;14800;48.174;9.798;2023-08-08T13:04:00;22.90;51.30
27314;DHT22;14800;48.174;9.798;2023-08-08T13:06:26;22.90;51.20
27314;DHT22;14800;48.174;9.798;2023-08-08T13:08:51;22.90;51.30
27314;DHT22;14800;48.174;9.798;2023-08-08T13:11:17;23.00;51.40
27314;DHT22;14800;48.174;9.798;2023-08-08T13:13:42;23.00;51.70
27314;DHT22;14800;48.174;9.798;2023-08-08T13:16:08;23.00;51.90
27314;DHT22;14800;48.174;9.798;2023-08-08T13:18:33;23.00;51.60
27314;DHT22;14800;48.174;9.798;2023-08-08T13:20:59;23.10;51.40
27314;DHT22;14800;48.174;9.798;2023-08-08T13:23:24;23.10;51.40
27314;DHT22;14800;48.174;9.798;2023-08-08T13:25:50;23.10;52.10
27314;DHT22;14800;48.174;9.798;2023-08-08T13:28:16;23.10;51.50
27314;DHT22;14800;48.174;9.798;2023-08-08T13:30:42;23.10;51.40
27314;DHT22;14800;48.174;9.798;2023-08-08T13:33:09;23.00;51.40
27314;DHT22;14800;48.174;9.798;2023-08-08T13:35:35;23.00;51.50
27314;DHT22;14800;48.174;9.798;2023-08-08T13:38:01;23.00;51.90
27314;DHT22;14800;48.174;9.798;2023-08-08T13:40:27;23.00;51.60
27314;DHT22;14800;48.174;9.798;2023-08-08T13:42:52;23.00;51.50
27314;DHT22;14800;48.174;9.798;2023-08-08T13:45:19;23.10;51.50
27314;DHT22;14800;48.174;9.798;2023-08-08T13:47:45;23.00;51.20
27314;DHT22;14800;48.174;9.798;2023-08-08T13:50:12;23.00;51.20
27314;DHT22;14800;48.174;9.798;2023-08-08T13:52:39;23.00;51.30
27314;DHT22;14800;48.174;9.798;2023-08-08T13:55:06;23.00;51.60
27314;DHT22;14800;48.174;9.798;2023-08-08T13:57:31;23.10;51.60
27314;DHT22;14800;48.174;9.798;2023-08-08T13:59:57;23.10;51.50
27314;DHT22;14800;48.174;9.798;2023-08-08T14:02:23;23.20;51.70
27314;DHT22;14800;48.174;9.798;2023-08-08T14:04:48;23.20;51.60
27314;DHT22;14800;48.174;9.798;2023-08-08T14:07:14;23.30;51.70
27314;DHT22;14800;48.174;9.798;2023-08-08T14:09:40;23.30;51.30
27314;DHT22;14800;48.174;9.798;2023-08-08T14:12:05;23.40;50.30
27314;DHT22;14800;48.174;9.798;2023-08-08T14:14:31;23.50;49.80
27314;DHT22;14800;48.174;9.798;2023-08-08T14:16:57;23.50;49.30
27314;DHT22;14800;48.174;9.798;2023-08-08T14:19:22;23.50;49.40
27314;DHT22;14800;48.174;9.798;2023-08-08T14:21:48;23.50;49.50
27314;DHT22;14800;48.174;9.798;2023-08-08T14:24:14;23.60;49.00
27314;DHT22;14800;48.174;9.798;2023-08-08T14:26:40;23.60;49.20
27314;DHT22;14800;48.174;9.798;2023-08-08T14:29:05;23.60;49.10
27314;DHT22;14800;48.174;9.798;2023-08-08T14:31:31;23.60;49.20
27314;DHT22;14800;48.174;9.798;2023-08-08T14:33:56;23.60;49.20
27314;DHT22;14800;48.174;9.798;2023-08-08T14:36:22;23.60;49.30
27314;DHT22;14800;48.174;9.798;2023-08-08T14:38:47;23.60;49.60
27314;DHT22;14800;48.174;9.798;2023-08-08T14:41:13;23.50;49.70
27314;DHT22;14800;48.174;9.798;2023-08-08T14:43:39;23.50;49.80
27314;DHT22;14800;48.174;9.798;2023-08-08T14:46:04;23.50;49.40
27314;DHT22;14800;48.174;9.798;2023-08-08T14:48:30;23.50;49.70
27314;DHT22;14800;48.174;9.798;2023-08-08T14:50:56;23.40;49.60
27314;DHT22;14800;48.174;9.798;2023-08-08T14:53:22;23.40;49.70
27314;DHT22;14800;48.174;9.798;2023-08-08T14:55:47;23.30;49.50
27314;DHT22;14800;48.174;9.798;2023-08-08T14:58:14;23.20;49.50
27314;DHT22;14800;48.174;9.798;2023-08-08T15:00:40;23.20;50.30
27314;DHT22;14800;48.174;9.798;2023-08-08T15:03:05;23.20;49.70
27314;DHT22;14800;48.174;9.798;2023-08-08T15:05:31;23.10;49.70
27314;DHT22;14800;48.174;9.798;2023-08-08T15:07:57;23.00;49.70
27314;DHT22;14800;48.174;9.798;2023-08-08T15:10:22;23.00;49.70
27314;DHT22;14800;48.174;9.798;2023-08-08T15:12:48;23.00;50.00
27314;DHT22;14800;48.174;9.798;2023-08-08T15:15:13;22.90;49.80
27314;DHT22;14800;48.174;9.798;2023-08-08T15:17:40;22.90;50.00
27314;DHT22;14800;48.174;9.798;2023-08-08T15:20:06;22.90;49.90
27314;DHT22;14800;48.174;9.798;2023-08-08T15:22:32;22.90;50.20
27314;DHT22;14800;48.174;9.798;2023-08-08T15:24:58;22.80;50.40
27314;DHT22;14800;48.174;9.798;2023-08-08T15:27:23;22.80;50.50